Mapleton, Kansas
Current Conditions -  °F | °C
As of 10:55 AM on Friday 28 Nov 2014 (Local Time) from KPTS Reporting Station
Clear Clear  
Wind Chill: 56°   Ceiling: Unl
Heat Index: 56°   Visibility: 10mi
Dew Point: 37°   Wind: 23mph
Humidity: 50%   Direction: 230°SW
Pressure: 30.01"   Gusts: 33mph
Location:  38.02°N, 94.88°W
Report Text: KPTS 281655Z AUTO 23020G29KT 10SM CLR 13/03 A3001 RMK AO2 T01330030
Loading
Personal Weather Stations






























Interactive Weather Map New forecast layout! Learn more

10-Day Weather Forecast

Advertisements
Track Severe Weather on mobile